createdAt,value
2022-11-24T00:02:44.625Z,26.70
2022-11-24T00:07:47.823Z,23.20
2022-11-24T00:12:50.856Z,22.00
2022-11-24T00:17:55.390Z,21.92
2022-11-24T00:22:58.600Z,24.73
2022-11-24T00:28:01.773Z,21.08
2022-11-24T00:33:06.249Z,24.10
2022-11-24T00:38:09.311Z,21.77
2022-11-24T00:43:12.538Z,22.55
2022-11-24T00:48:16.937Z,22.88
2022-11-24T00:53:19.989Z,23.20
2022-11-24T00:58:24.546Z,24.00
2022-11-24T01:03:28.981Z,23.63
2022-11-24T01:08:32.226Z,24.67
2022-11-24T01:13:35.326Z,23.30
2022-11-24T01:18:40.865Z,25.00
2022-11-24T01:23:44.530Z,25.48
2022-11-24T01:28:48.151Z,24.70
2022-11-24T01:33:52.977Z,25.60
2022-11-24T01:38:56.228Z,28.50
2022-11-24T01:43:59.258Z,25.88
2022-11-24T01:49:13.131Z,26.52
2022-11-24T01:54:20.245Z,22.92
2022-11-24T01:59:24.028Z,26.42
2022-11-24T02:04:32.845Z,25.02
2022-11-24T02:09:43.171Z,20.23
2022-11-24T02:14:46.741Z,24.77
2022-11-24T02:19:56.305Z,24.17
2022-11-24T02:25:07.112Z,22.13
2022-11-24T02:30:11.964Z,20.52
2022-11-24T02:35:16.159Z,21.65
2022-11-24T02:40:25.141Z,18.95
2022-11-24T02:45:31.406Z,22.63
2022-11-24T02:50:34.454Z,20.17
2022-11-24T02:55:37.526Z,23.40
2022-11-24T03:00:41.892Z,21.90
2022-11-24T03:05:44.974Z,22.57
2022-11-24T03:10:48.140Z,24.30
2022-11-24T03:15:52.510Z,21.58
2022-11-24T03:20:59.789Z,23.03
2022-11-24T03:26:10.645Z,20.42
2022-11-24T03:31:15.493Z,21.63
2022-11-24T03:36:19.085Z,19.10
2022-11-24T03:41:22.225Z,19.17
2022-11-24T03:46:26.788Z,19.27
2022-11-24T03:51:29.914Z,22.58
2022-11-24T03:56:33.038Z,21.20
2022-11-24T04:01:37.622Z,17.58
2022-11-24T04:06:40.871Z,21.80
2022-11-24T04:12:02.495Z,16.88
2022-11-24T04:17:06.887Z,21.58
2022-11-24T04:22:10.158Z,22.93
2022-11-24T04:27:13.223Z,23.38
2022-11-24T04:32:17.671Z,20.92
2022-11-24T04:37:20.909Z,20.50
2022-11-24T04:42:23.989Z,20.10
2022-11-24T04:47:28.774Z,19.75
2022-11-24T04:52:32.821Z,18.80
2022-11-24T04:57:36.355Z,22.43
2022-11-24T05:02:40.695Z,20.10
2022-11-24T05:07:43.825Z,22.47
2022-11-24T05:12:54.215Z,20.50
2022-11-24T05:17:58.754Z,20.02
2022-11-24T05:23:03.107Z,16.98
2022-11-24T05:28:10.970Z,20.10
2022-11-24T05:33:19.024Z,17.90
2022-11-24T05:38:23.769Z,16.67
2022-11-24T05:43:26.949Z,17.65
2022-11-24T05:48:31.300Z,17.98
2022-11-24T05:53:34.579Z,19.03
2022-11-24T05:58:37.686Z,18.52
2022-11-24T06:03:42.034Z,18.90
2022-11-24T06:08:45.138Z,17.37
2022-11-24T06:13:48.806Z,16.48
2022-11-24T06:18:53.551Z,17.25
2022-11-24T06:23:56.669Z,18.70
2022-11-24T06:28:59.853Z,18.95
2022-11-24T06:34:06.217Z,15.60
2022-11-24T06:39:10.487Z,14.90
2022-11-24T06:44:13.613Z,17.33
2022-11-24T06:49:18.226Z,18.65
2022-11-24T06:54:22.156Z,20.30
2022-11-24T06:59:26.467Z,19.73
2022-11-24T07:04:30.845Z,18.23
2022-11-24T07:09:34.065Z,19.73
2022-11-24T07:14:37.382Z,17.55
2022-11-24T07:19:42.046Z,18.15
2022-11-24T07:24:45.186Z,18.50
2022-11-24T07:29:48.203Z,15.50
2022-11-24T07:34:52.750Z,18.40
2022-11-24T07:39:55.944Z,17.77
2022-11-24T07:45:05.115Z,15.30
2022-11-24T07:50:13.414Z,16.08
2022-11-24T07:55:16.727Z,17.15
2022-11-24T08:00:20.393Z,18.17
2022-11-24T08:05:24.969Z,17.13
2022-11-24T08:10:28.220Z,18.90
2022-11-24T08:15:31.339Z,20.80
2022-11-24T08:20:35.840Z,19.63
2022-11-24T08:25:39.036Z,18.47
2022-11-24T08:30:42.207Z,16.77
2022-11-24T08:35:46.802Z,19.30
2022-11-24T08:40:49.969Z,18.50
2022-11-24T08:45:53.286Z,16.85
2022-11-24T08:50:58.454Z,19.00
2022-11-24T08:56:01.699Z,17.20
2022-11-24T09:01:06.524Z,19.38
2022-11-24T09:06:11.393Z,19.27
2022-11-24T09:11:16.362Z,17.50
2022-11-24T09:16:21.197Z,17.95
2022-11-24T09:21:25.679Z,17.50
2022-11-24T09:26:31.392Z,17.37
2022-11-24T09:31:36.751Z,15.77
2022-11-24T09:36:41.335Z,15.75
2022-11-24T09:42:12.511Z,17.83
2022-11-24T09:47:26.454Z,16.55
2022-11-24T09:52:40.115Z,20.15
2022-11-24T09:57:44.017Z,17.63
2022-11-24T10:02:49.383Z,17.02
2022-11-24T10:08:03.008Z,17.83
2022-11-24T10:13:22.991Z,16.73
2022-11-24T10:18:40.786Z,17.00
2022-11-24T10:24:03.021Z,17.13
2022-11-24T10:29:18.981Z,17.25
2022-11-24T10:34:27.517Z,16.42
2022-11-24T10:39:39.456Z,19.13
2022-11-24T10:44:43.405Z,18.33
2022-11-24T10:49:55.336Z,18.80
2022-11-24T10:55:02.408Z,18.63
2022-11-24T11:00:31.655Z,17.52
2022-11-24T11:05:42.226Z,19.55
2022-11-24T11:10:49.015Z,15.40
2022-11-24T11:15:52.670Z,14.98
2022-11-24T11:20:57.933Z,17.48
2022-11-24T11:26:32.791Z,17.27
2022-11-24T11:36:42.042Z,16.35
2022-11-24T11:41:49.993Z,18.52
2022-11-24T11:46:54.805Z,17.17
2022-11-24T11:52:21.599Z,18.33
2022-11-24T11:57:35.131Z,16.65
2022-11-24T12:03:08.442Z,16.30
2022-11-24T12:08:28.219Z,13.65
2022-11-24T12:13:42.042Z,16.52
2022-11-24T12:18:58.900Z,15.90
2022-11-24T12:24:13.366Z,14.57
2022-11-24T12:29:58.496Z,14.00
2022-11-24T12:35:23.884Z,15.73
2022-11-24T12:40:40.919Z,16.58
2022-11-24T12:45:59.253Z,14.77
2022-11-24T12:51:06.556Z,15.15
2022-11-24T12:56:12.527Z,14.57
2022-11-24T13:01:25.451Z,14.30
2022-11-24T13:06:39.727Z,13.85
2022-11-24T13:11:45.212Z,16.20
2022-11-24T13:17:13.451Z,14.45
2022-11-24T13:22:23.324Z,14.68
2022-11-24T13:28:02.932Z,14.98
2022-11-24T13:33:37.709Z,14.75
2022-11-24T13:38:53.944Z,16.55
2022-11-24T13:44:24.514Z,16.08
2022-11-24T13:49:38.149Z,15.85
2022-11-24T13:54:42.856Z,14.73
2022-11-24T13:59:46.188Z,15.85
2022-11-24T14:04:50.394Z,14.45
2022-11-24T14:09:55.107Z,13.80
2022-11-24T14:15:23.479Z,14.43
2022-11-24T14:20:28.452Z,14.60
2022-11-24T14:25:33.240Z,16.25
2022-11-24T14:30:36.636Z,12.65
2022-11-24T14:35:43.789Z,15.20
2022-11-24T14:40:50.463Z,13.55
2022-11-24T14:45:56.094Z,12.73
2022-11-24T14:51:08.657Z,13.40
2022-11-24T14:56:24.942Z,13.95
2022-11-24T15:01:32.857Z,15.18
2022-11-24T15:06:36.505Z,13.23
2022-11-24T15:11:41.016Z,12.27
2022-11-24T15:16:44.276Z,13.13
2022-11-24T15:21:47.504Z,14.15
2022-11-24T15:27:00.161Z,12.93
2022-11-24T15:32:12.454Z,11.88
2022-11-24T15:37:15.606Z,12.48
2022-11-24T15:42:20.201Z,14.18
2022-11-24T15:47:23.324Z,13.40
2022-11-24T15:52:26.521Z,14.60
2022-11-24T15:57:32.387Z,14.75
2022-11-24T16:02:35.561Z,12.13
2022-11-24T16:07:38.719Z,13.40
2022-11-24T16:12:43.212Z,13.57
2022-11-24T16:17:46.411Z,16.17
2022-11-24T16:22:49.689Z,15.43
2022-11-24T16:27:54.326Z,15.63
2022-11-24T16:32:57.371Z,13.03
2022-11-24T16:38:00.505Z,13.13
2022-11-24T16:43:04.891Z,14.45
2022-11-24T16:48:07.924Z,13.77
2022-11-24T16:53:10.937Z,15.27
2022-11-24T16:58:15.315Z,14.50
2022-11-24T17:03:18.582Z,16.08
2022-11-24T17:08:21.630Z,16.65
2022-11-24T17:13:26.002Z,18.60
2022-11-24T17:18:29.043Z,18.25
2022-11-24T17:23:32.180Z,15.77
2022-11-24T17:28:36.914Z,14.65
2022-11-24T17:33:40.095Z,16.27
2022-11-24T17:38:43.129Z,15.57
2022-11-24T17:43:50.507Z,16.23
2022-11-24T17:48:54.054Z,18.60
2022-11-24T17:53:57.540Z,16.90
2022-11-24T17:59:02.197Z,15.15
2022-11-24T18:04:05.358Z,16.05
2022-11-24T18:09:08.522Z,16.25
2022-11-24T18:14:13.150Z,14.38
2022-11-24T18:19:16.338Z,15.97
2022-11-24T18:24:23.938Z,18.70
2022-11-24T18:29:28.724Z,17.98
2022-11-24T18:34:31.782Z,15.93
2022-11-24T18:39:34.950Z,16.00
2022-11-24T18:44:39.385Z,17.73
2022-11-24T18:49:42.587Z,19.90
2022-11-24T18:54:45.697Z,18.52
2022-11-24T18:59:50.094Z,14.85
2022-11-24T19:04:53.320Z,15.47
2022-11-24T19:09:56.579Z,16.70
2022-11-24T19:15:01.041Z,16.85
2022-11-24T19:20:05.603Z,16.67
2022-11-24T19:25:09.524Z,15.47
2022-11-24T19:30:15.633Z,16.48
2022-11-24T19:35:18.697Z,14.95
2022-11-24T19:40:21.724Z,17.13
2022-11-24T19:45:26.314Z,18.70
2022-11-24T19:50:29.659Z,17.50
2022-11-24T19:55:32.745Z,15.52
2022-11-24T20:00:37.282Z,17.05
2022-11-24T20:05:40.334Z,15.20
2022-11-24T20:10:43.445Z,13.55
2022-11-24T20:15:47.957Z,16.63
2022-11-24T20:20:50.987Z,15.27
2022-11-24T20:25:54.168Z,15.73
2022-11-24T20:31:02.252Z,13.50
2022-11-24T20:36:07.396Z,14.80
2022-11-24T20:46:18.092Z,15.43
2022-11-24T20:51:23.187Z,12.35
2022-11-24T20:56:28.822Z,15.10
2022-11-24T21:01:35.308Z,15.30
2022-11-24T21:06:39.559Z,14.82
2022-11-24T21:11:42.912Z,14.35
2022-11-24T21:16:47.722Z,14.45
2022-11-24T21:21:51.185Z,14.18
2022-11-24T21:26:54.561Z,17.33
2022-11-24T21:31:59.467Z,12.65
2022-11-24T21:37:02.901Z,14.02
2022-11-24T21:42:06.509Z,13.10
2022-11-24T21:47:11.236Z,12.57
2022-11-24T21:52:15.387Z,14.07
2022-11-24T21:57:18.877Z,13.95
2022-11-24T22:02:23.467Z,13.80
2022-11-24T22:07:30.875Z,16.30
2022-11-24T22:12:34.068Z,16.60
2022-11-24T22:17:38.491Z,15.52
2022-11-24T22:22:41.645Z,13.67
2022-11-24T22:27:44.734Z,13.63
2022-11-24T22:32:49.258Z,14.75
2022-11-24T22:37:53.710Z,15.98
2022-11-24T22:42:58.383Z,14.23
2022-11-24T22:48:02.843Z,14.82
2022-11-24T22:53:06.295Z,17.00
2022-11-24T22:58:09.408Z,16.08
2022-11-24T23:03:14.015Z,16.38
2022-11-24T23:08:17.337Z,14.23
2022-11-24T23:13:25.470Z,14.77
2022-11-24T23:18:30.113Z,12.27
2022-11-24T23:23:33.641Z,15.00
2022-11-24T23:28:36.035Z,13.55
2022-11-24T23:33:41.854Z,13.40
2022-11-24T23:38:45.592Z,13.98
2022-11-24T23:43:49.021Z,15.02
2022-11-24T23:48:54.874Z,12.77
2022-11-24T23:53:59.141Z,15.60
2022-11-24T23:59:12.581Z,15.33
